Seaspan Saigon — VRBT7 — position and weather

sailwx.info

Track history (hours):
 
Tides and Currents Weather Stations Pressure Air Temp Water Temp Dewpoint Dewpoint Depression Visibility Wind Speed Wind Dir Waves Ship Positions

Seaspan Saigon

Last reported at 2016-May-01 20:13 UTC. Time now 2016-May-03 12:36 UTC.
Position N 29°37' W 089°54'.

Length 260 m; draft 12.3 m.

Type: Ship (hazmat cat A). MMSI: 477106800.

Date/timePositionNaut miles runAvg speedWind from/ knotsBaromVisibWave heightAir tempDewpointWater temp
2016-May-01 20:13N 29°37' W 089°54'913.9
2016-May-01 19:33N 29°44' W 089°60'1010.0
2016-May-01 18:33N 29°53' W 089°54'10 9.7
2016-May-01 17:33N 29°55' W 090°05'2 1.5
2016-May-01 16:32N 29°55' W 090°07'0 0.0
2016-May-01 15:32N 29°55' W 090°07'0 0.0
2016-May-01 14:32N 29°55' W 090°07'0 0.0
2016-May-01 13:32N 29°55' W 090°07'0 0.0
2016-May-01 12:32N 29°55' W 090°07'0 0.0
2016-May-01 11:23N 29°55' W 090°07'0 0.0
2016-May-01 10:32N 29°55' W 090°07'0 0.0
2016-May-01 09:32N 29°55' W 090°07'0 0.0
2016-May-01 08:32N 29°55' W 090°07'0 0.0
2016-May-01 07:32N 29°55' W 090°07'0 0.0
2016-May-01 06:32N 29°55' W 090°07'0 0.0
2016-May-01 05:32N 29°55' W 090°07'0 0.0
2016-May-01 04:32N 29°55' W 090°07'0 0.0
2016-May-01 03:32N 29°55' W 090°07'0 0.0
2016-May-01 02:32N 29°55' W 090°07'0 0.0
2016-May-01 01:32N 29°55' W 090°07'0 0.0
2016-May-01 00:32N 29°55' W 090°07'0 0.0
2016-Apr-30 23:32N 29°55' W 090°07'0 0.0
2016-Apr-30 22:29N 29°55' W 090°07'0 0.0
2016-Apr-30 21:34N 29°55' W 090°07'5 4.8
2016-Apr-30 20:34N 29°57' W 090°02'7 7.0
2016-Apr-30 19:34N 29°55' W 089°55'6 5.8
2016-Apr-30 18:34N 29°50' W 089°59'68 6.8
2016-Apr-30 08:33N 28°47' W 089°30'3510.5
2016-Apr-30 05:16N 28°19' W 089°54'15510.5
2016-Apr-29 14:29N 27°49' W 092°46'37 7.0
2016-Apr-29 09:13N 28°21' W 093°06'1218.0
2016-Apr-29 08:32N 28°28' W 093°18'1717.9
2016-Apr-29 07:33N 28°38' W 093°34'1817.9
2016-Apr-29 06:33N 28°48' W 093°50'4814.0
2016-Apr-29 03:08N 29°16' W 094°35'712.6
2016-Apr-29 02:32N 29°21' W 094°42'1212.4
2016-Apr-29 01:33N 29°29' W 094°52'1211.9
2016-Apr-29 00:33N 29°40' W 094°58'2 1.7
2016-Apr-28 23:30N 29°41' W 094°60'0 0.0
2016-Apr-28 22:30N 29°41' W 094°60'0 0.0
2016-Apr-28 21:33N 29°41' W 094°60'0 0.0
2016-Apr-28 20:33N 29°41' W 094°60'0 0.0
2016-Apr-28 19:33N 29°41' W 094°60'0 0.0
2016-Apr-28 18:33N 29°41' W 094°60'0 0.0
2016-Apr-28 17:33N 29°41' W 094°60'0 0.0
2016-Apr-28 16:33N 29°41' W 094°60'0 0.0
2016-Apr-28 15:33N 29°41' W 094°60'0 0.0
2016-Apr-28 14:33N 29°41' W 094°60'0 0.0
2016-Apr-28 13:21N 29°41' W 094°60'0 0.0
2016-Apr-28 12:33N 29°41' W 094°60'0 0.0
2016-Apr-28 11:33N 29°41' W 094°60'0 0.0
2016-Apr-28 10:30N 29°41' W 094°60'0 0.0
2016-Apr-28 09:33N 29°41' W 094°60'0 0.0
2016-Apr-28 08:33N 29°41' W 094°60'0 0.0
2016-Apr-28 07:33N 29°41' W 094°60'0 0.0
2016-Apr-28 06:33N 29°41' W 094°60'0 0.0
2016-Apr-28 05:33N 29°41' W 094°60'0 0.0
2016-Apr-28 04:33N 29°41' W 094°60'0 0.0
2016-Apr-28 03:33N 29°41' W 094°60'0 0.0
2016-Apr-28 02:33N 29°41' W 094°60'0 0.0
2016-Apr-28 01:33N 29°41' W 094°60'0 0.0
2016-Apr-28 00:32N 29°41' W 094°60'0 0.0
2016-Apr-27 23:32N 29°41' W 094°60'0 0.0
2016-Apr-27 22:29N 29°41' W 094°60'0 0.0
2016-Apr-27 21:32N 29°41' W 094°60'0 0.0
2016-Apr-27 20:32N 29°41' W 094°60'1 1.0
2016-Apr-27 19:33N 29°41' W 094°59'1211.7
2016-Apr-27 18:33N 29°30' W 094°52'1312.6
2016-Apr-27 17:32N 29°21' W 094°43'1010.6
2016-Apr-27 16:33N 29°15' W 094°32'  
2016-Apr-24 20:32N 20°14' W 096°22'1413.8
2016-Apr-24 19:33N 20°01' W 096°15'1413.8
2016-Apr-24 18:33N 19°49' W 096°09'1413.9
2016-Apr-24 17:33N 19°36' W 096°03'1413.6
2016-Apr-24 16:33N 19°24' W 095°57'1212.1
2016-Apr-24 15:33N 19°12' W 096°01'6 6.1
2016-Apr-24 14:31N 19°13' W 096°08'0 0.0
2016-Apr-24 13:31N 19°13' W 096°08'0 0.0
2016-Apr-24 12:31N 19°13' W 096°08'0 0.0
2016-Apr-24 11:31N 19°13' W 096°08'0 0.0
2016-Apr-24 10:31N 19°13' W 096°08'0 0.0
2016-Apr-24 09:31N 19°13' W 096°08'0 0.0
2016-Apr-24 08:31N 19°13' W 096°08'0 0.0
2016-Apr-24 07:28N 19°13' W 096°08'0 0.0
2016-Apr-24 06:31N 19°13' W 096°08'0 0.0
2016-Apr-24 05:28N 19°13' W 096°08'0 0.0
2016-Apr-24 04:28N 19°13' W 096°08'0 0.0
2016-Apr-24 03:31N 19°13' W 096°08'0 0.0
2016-Apr-24 02:31N 19°13' W 096°08'0 0.0
2016-Apr-24 01:31N 19°13' W 096°08'0 0.0
2016-Apr-24 00:28N 19°13' W 096°08'0 0.4
2016-Apr-23 23:33N 19°12' W 096°08'8 8.4
2016-Apr-23 22:33N 19°14' W 095°59'10 9.6
2016-Apr-23 21:34N 19°20' W 095°52'0 0.1
2016-Apr-23 20:23N 19°20' W 095°52'0 0.2
2016-Apr-23 19:33N 19°20' W 095°52'0 0.1
2016-Apr-23 18:33N 19°20' W 095°52'0 0.1
2016-Apr-23 17:33N 19°20' W 095°52'0 0.1
2016-Apr-23 16:33N 19°20' W 095°52'0 0.2
2016-Apr-23 15:34N 19°20' W 095°52'0 0.2
2016-Apr-23 14:33N 19°20' W 095°51'2 2.1
2016-Apr-23 13:33N 19°18' W 095°50'1111.0
2016-Apr-23 12:33N 19°14' W 095°40'  
Track history (hours):
 
Tides and Currents Weather Stations Pressure Air Temp Water Temp Dewpoint Dewpoint Depression Visibility Wind Speed Wind Dir Waves Ship Positions

Seaspan Saigon

Last reported at 2016-May-01 20:13 UTC. Time now 2016-May-03 12:36 UTC.
Position N 29°37' W 089°54'.

Length 260 m; draft 12.3 m.

Type: Ship (hazmat cat A). MMSI: 477106800.

Date/timePositionNaut miles runAvg speedWind from/ knotsBaromVisibWave heightAir tempDewpointWater temp
2016-May-01 20:13N 29°37' W 089°54'913.9
2016-May-01 19:33N 29°44' W 089°60'1010.0
2016-May-01 18:33N 29°53' W 089°54'10 9.7
2016-May-01 17:33N 29°55' W 090°05'2 1.5
2016-May-01 16:32N 29°55' W 090°07'0 0.0
2016-May-01 15:32N 29°55' W 090°07'0 0.0
2016-May-01 14:32N 29°55' W 090°07'0 0.0
2016-May-01 13:32N 29°55' W 090°07'0 0.0
2016-May-01 12:32N 29°55' W 090°07'0 0.0
2016-May-01 11:23N 29°55' W 090°07'0 0.0
2016-May-01 10:32N 29°55' W 090°07'0 0.0
2016-May-01 09:32N 29°55' W 090°07'0 0.0
2016-May-01 08:32N 29°55' W 090°07'0 0.0
2016-May-01 07:32N 29°55' W 090°07'0 0.0
2016-May-01 06:32N 29°55' W 090°07'0 0.0
2016-May-01 05:32N 29°55' W 090°07'0 0.0
2016-May-01 04:32N 29°55' W 090°07'0 0.0
2016-May-01 03:32N 29°55' W 090°07'0 0.0
2016-May-01 02:32N 29°55' W 090°07'0 0.0
2016-May-01 01:32N 29°55' W 090°07'0 0.0
2016-May-01 00:32N 29°55' W 090°07'0 0.0
2016-Apr-30 23:32N 29°55' W 090°07'0 0.0
2016-Apr-30 22:29N 29°55' W 090°07'0 0.0
2016-Apr-30 21:34N 29°55' W 090°07'5 4.8
2016-Apr-30 20:34N 29°57' W 090°02'7 7.0
2016-Apr-30 19:34N 29°55' W 089°55'6 5.8
2016-Apr-30 18:34N 29°50' W 089°59'68 6.8
2016-Apr-30 08:33N 28°47' W 089°30'3510.5
2016-Apr-30 05:16N 28°19' W 089°54'15510.5
2016-Apr-29 14:29N 27°49' W 092°46'37 7.0
2016-Apr-29 09:13N 28°21' W 093°06'1218.0
2016-Apr-29 08:32N 28°28' W 093°18'1717.9
2016-Apr-29 07:33N 28°38' W 093°34'1817.9
2016-Apr-29 06:33N 28°48' W 093°50'4814.0
2016-Apr-29 03:08N 29°16' W 094°35'712.6
2016-Apr-29 02:32N 29°21' W 094°42'1212.4
2016-Apr-29 01:33N 29°29' W 094°52'1211.9
2016-Apr-29 00:33N 29°40' W 094°58'2 1.7
2016-Apr-28 23:30N 29°41' W 094°60'0 0.0
2016-Apr-28 22:30N 29°41' W 094°60'0 0.0
2016-Apr-28 21:33N 29°41' W 094°60'0 0.0
2016-Apr-28 20:33N 29°41' W 094°60'0 0.0
2016-Apr-28 19:33N 29°41' W 094°60'0 0.0
2016-Apr-28 18:33N 29°41' W 094°60'0 0.0
2016-Apr-28 17:33N 29°41' W 094°60'0 0.0
2016-Apr-28 16:33N 29°41' W 094°60'0 0.0
2016-Apr-28 15:33N 29°41' W 094°60'0 0.0
2016-Apr-28 14:33N 29°41' W 094°60'0 0.0
2016-Apr-28 13:21N 29°41' W 094°60'0 0.0
2016-Apr-28 12:33N 29°41' W 094°60'0 0.0
2016-Apr-28 11:33N 29°41' W 094°60'0 0.0
2016-Apr-28 10:30N 29°41' W 094°60'0 0.0
2016-Apr-28 09:33N 29°41' W 094°60'0 0.0
2016-Apr-28 08:33N 29°41' W 094°60'0 0.0
2016-Apr-28 07:33N 29°41' W 094°60'0 0.0
2016-Apr-28 06:33N 29°41' W 094°60'0 0.0
2016-Apr-28 05:33N 29°41' W 094°60'0 0.0
2016-Apr-28 04:33N 29°41' W 094°60'0 0.0
2016-Apr-28 03:33N 29°41' W 094°60'0 0.0
2016-Apr-28 02:33N 29°41' W 094°60'0 0.0
2016-Apr-28 01:33N 29°41' W 094°60'0 0.0
2016-Apr-28 00:32N 29°41' W 094°60'0 0.0
2016-Apr-27 23:32N 29°41' W 094°60'0 0.0
2016-Apr-27 22:29N 29°41' W 094°60'0 0.0
2016-Apr-27 21:32N 29°41' W 094°60'0 0.0
2016-Apr-27 20:32N 29°41' W 094°60'1 1.0
2016-Apr-27 19:33N 29°41' W 094°59'1211.7
2016-Apr-27 18:33N 29°30' W 094°52'1312.6
2016-Apr-27 17:32N 29°21' W 094°43'1010.6
2016-Apr-27 16:33N 29°15' W 094°32'  
2016-Apr-24 20:32N 20°14' W 096°22'1413.8
2016-Apr-24 19:33N 20°01' W 096°15'1413.8
2016-Apr-24 18:33N 19°49' W 096°09'1413.9
2016-Apr-24 17:33N 19°36' W 096°03'1413.6
2016-Apr-24 16:33N 19°24' W 095°57'1212.1
2016-Apr-24 15:33N 19°12' W 096°01'6 6.1
2016-Apr-24 14:31N 19°13' W 096°08'0 0.0
2016-Apr-24 13:31N 19°13' W 096°08'0 0.0
2016-Apr-24 12:31N 19°13' W 096°08'0 0.0
2016-Apr-24 11:31N 19°13' W 096°08'0 0.0
2016-Apr-24 10:31N 19°13' W 096°08'0 0.0
2016-Apr-24 09:31N 19°13' W 096°08'0 0.0
2016-Apr-24 08:31N 19°13' W 096°08'0 0.0
2016-Apr-24 07:28N 19°13' W 096°08'0 0.0
2016-Apr-24 06:31N 19°13' W 096°08'0 0.0
2016-Apr-24 05:28N 19°13' W 096°08'0 0.0
2016-Apr-24 04:28N 19°13' W 096°08'0 0.0
2016-Apr-24 03:31N 19°13' W 096°08'0 0.0
2016-Apr-24 02:31N 19°13' W 096°08'0 0.0
2016-Apr-24 01:31N 19°13' W 096°08'0 0.0
2016-Apr-24 00:28N 19°13' W 096°08'0 0.4
2016-Apr-23 23:33N 19°12' W 096°08'8 8.4
2016-Apr-23 22:33N 19°14' W 095°59'10 9.6
2016-Apr-23 21:34N 19°20' W 095°52'0 0.1
2016-Apr-23 20:23N 19°20' W 095°52'0 0.2
2016-Apr-23 19:33N 19°20' W 095°52'0 0.1
2016-Apr-23 18:33N 19°20' W 095°52'0 0.1
2016-Apr-23 17:33N 19°20' W 095°52'0 0.1
2016-Apr-23 16:33N 19°20' W 095°52'0 0.2
2016-Apr-23 15:34N 19°20' W 095°52'0 0.2
2016-Apr-23 14:33N 19°20' W 095°51'2 2.1
2016-Apr-23 13:33N 19°18' W 095°50'1111.0
2016-Apr-23 12:33N 19°14' W 095°40'  

Dump ship's entire track history